Quinsam — VY6800 — position and weather

sailwx.info

Track history (hours):
 
Tides and Currents Weather Stations Pressure Air Temp Water Temp Dewpoint Dewpoint Depression Visibility Wind Speed Wind Dir Waves Ship Positions

Quinsam

Last reported at 2016-Apr-30 11:12 UTC. Time now 2016-Apr-30 13:05 UTC.
Position N 49°11' W 123°52'.

Length 88 m; draft 1.5 m.

Type: Ship. MMSI: 316001266.

Date/timePositionNaut miles runAvg speedWind from/ knotsBaromVisibWave heightAir tempDewpointWater temp
2016-Apr-30 11:12N 49°11' W 123°52'0 0.0
2016-Apr-30 10:33N 49°11' W 123°52'0 0.0
2016-Apr-30 09:27N 49°11' W 123°52'0 0.0
2016-Apr-30 08:24N 49°11' W 123°52'0 0.0
2016-Apr-30 07:33N 49°11' W 123°52'0 0.0
2016-Apr-30 06:20N 49°11' W 123°52'1 0.7
2016-Apr-30 05:33N 49°11' W 123°52'0 0.4
2016-Apr-30 04:33N 49°11' W 123°52'1 0.6
2016-Apr-30 03:33N 49°10' W 123°53'0 0.5
2016-Apr-30 02:33N 49°11' W 123°52'0 0.5
2016-Apr-30 01:33N 49°11' W 123°52'0 0.0
2016-Apr-30 00:32N 49°11' W 123°52'2 1.7
2016-Apr-29 23:34N 49°10' W 123°54'1 1.3
2016-Apr-29 22:33N 49°10' W 123°56'0 0.4
2016-Apr-29 21:33N 49°10' W 123°55'2 2.4
2016-Apr-29 20:33N 49°11' W 123°52'0 0.1
2016-Apr-29 19:33N 49°11' W 123°52'1 1.3
2016-Apr-29 18:33N 49°10' W 123°54'2 1.6
2016-Apr-29 17:33N 49°10' W 123°56'0 0.5
2016-Apr-29 16:33N 49°10' W 123°55'2 2.4
2016-Apr-29 15:34N 49°11' W 123°52'0 0.1
2016-Apr-29 14:32N 49°11' W 123°52'2 2.4
2016-Apr-29 13:33N 49°10' W 123°55'2 1.1
2016-Apr-29 11:31N 49°11' W 123°52'0 0.0
2016-Apr-29 10:28N 49°11' W 123°52'0 0.0
2016-Apr-29 09:28N 49°11' W 123°52'0 0.0
2016-Apr-29 08:31N 49°11' W 123°52'0 0.0
2016-Apr-29 07:31N 49°11' W 123°52'0 0.0
2016-Apr-29 06:31N 49°11' W 123°52'1 0.5
2016-Apr-29 05:33N 49°11' W 123°52'1 0.5
2016-Apr-29 04:33N 49°11' W 123°52'1 1.0
2016-Apr-29 03:33N 49°10' W 123°53'1 0.9
2016-Apr-29 02:34N 49°11' W 123°52'0 0.1
2016-Apr-29 01:33N 49°11' W 123°52'0 0.0
2016-Apr-29 00:21N 49°11' W 123°52'2 2.0
2016-Apr-28 23:33N 49°10' W 123°54'1 1.2
2016-Apr-28 22:31N 49°10' W 123°56'1 0.9
2016-Apr-28 21:33N 49°10' W 123°55'2 2.0
2016-Apr-28 20:32N 49°11' W 123°52'0 0.0
2016-Apr-28 19:32N 49°11' W 123°52'2 2.4
2016-Apr-28 18:33N 49°10' W 123°55'1 0.6
2016-Apr-28 17:33N 49°10' W 123°56'0 0.2
2016-Apr-28 16:33N 49°10' W 123°56'2 2.5
2016-Apr-28 15:33N 49°11' W 123°52'0 0.2
2016-Apr-28 14:30N 49°11' W 123°52'3 3.0
2016-Apr-28 13:34N 49°10' W 123°56'3 2.5
2016-Apr-28 12:27N 49°11' W 123°52'0 0.0
2016-Apr-28 11:15N 49°11' W 123°52'0 0.0
2016-Apr-28 09:33N 49°11' W 123°52'0 0.0
2016-Apr-28 08:33N 49°11' W 123°52'0 0.0
2016-Apr-28 07:33N 49°11' W 123°52'0 0.0
2016-Apr-28 06:22N 49°11' W 123°52'3 3.4
2016-Apr-28 05:32N 49°10' W 123°56'2 2.5
2016-Apr-28 04:33N 49°11' W 123°52'1 0.6
2016-Apr-28 03:34N 49°10' W 123°53'1 0.9
2016-Apr-28 02:33N 49°11' W 123°52'0 0.2
2016-Apr-28 01:32N 49°11' W 123°52'0 0.0
2016-Apr-28 00:32N 49°11' W 123°52'1 0.6
2016-Apr-27 23:33N 49°11' W 123°52'2 2.4
2016-Apr-27 22:33N 49°10' W 123°56'0 0.4
2016-Apr-27 21:33N 49°10' W 123°55'3 2.5
2016-Apr-27 20:32N 49°11' W 123°52'0 0.0
2016-Apr-27 19:28N 49°11' W 123°52'3 2.7
2016-Apr-27 18:33N 49°10' W 123°55'0 0.4
2016-Apr-27 17:33N 49°10' W 123°56'1 1.0
2016-Apr-27 16:34N 49°10' W 123°54'2 1.9
2016-Apr-27 15:34N 49°11' W 123°52'0 0.0
2016-Apr-27 14:33N 49°11' W 123°52'3 2.8
2016-Apr-27 13:33N 49°10' W 123°56'3 2.6
2016-Apr-27 12:28N 49°11' W 123°52'0 0.0
2016-Apr-27 11:22N 49°11' W 123°52'0 0.0
2016-Apr-27 10:28N 49°11' W 123°52'0 0.0
2016-Apr-27 09:25N 49°11' W 123°52'0 0.0
2016-Apr-27 08:28N 49°11' W 123°52'0 0.0
2016-Apr-27 07:28N 49°11' W 123°52'0 0.0
2016-Apr-27 06:31N 49°11' W 123°52'0 0.5
2016-Apr-27 05:33N 49°11' W 123°52'0 0.1
2016-Apr-27 04:34N 49°11' W 123°52'1 0.8
2016-Apr-27 03:33N 49°10' W 123°53'1 1.2
2016-Apr-27 02:33N 49°11' W 123°52'0 0.1
2016-Apr-27 01:32N 49°11' W 123°52'0 0.0
2016-Apr-27 00:33N 49°11' W 123°52'2 1.7
2016-Apr-26 23:33N 49°10' W 123°54'1 1.2
2016-Apr-26 22:33N 49°10' W 123°56'1 1.1
2016-Apr-26 21:33N 49°10' W 123°54'2 1.8
2016-Apr-26 20:33N 49°11' W 123°52'0 0.0
2016-Apr-26 19:33N 49°11' W 123°52'2 2.4
2016-Apr-26 18:33N 49°10' W 123°55'1 0.6
2016-Apr-26 17:33N 49°10' W 123°56'1 1.0
2016-Apr-26 16:33N 49°10' W 123°54'2 1.9
2016-Apr-26 15:33N 49°11' W 123°52'0 0.0
2016-Apr-26 14:28N 49°11' W 123°52'3 3.1
2016-Apr-26 13:33N 49°10' W 123°56'3 1.2
2016-Apr-26 11:10N 49°11' W 123°52'0 0.0
2016-Apr-26 07:22N 49°11' W 123°52'0 0.0
2016-Apr-26 06:24N 49°11' W 123°52'1 0.8
2016-Apr-26 05:33N 49°11' W 123°53'0 0.1
2016-Apr-26 04:33N 49°11' W 123°52'0 0.5
2016-Apr-26 03:33N 49°10' W 123°53'1 0.7
2016-Apr-26 02:33N 49°11' W 123°52'0 0.3
2016-Apr-26 01:31N 49°11' W 123°52'0 0.0
2016-Apr-26 00:23N 49°11' W 123°52'2 1.9
2016-Apr-25 23:33N 49°10' W 123°54'1 1.3
2016-Apr-25 22:33N 49°10' W 123°56'1 1.3
2016-Apr-25 21:33N 49°10' W 123°54'2 1.6
2016-Apr-25 20:33N 49°11' W 123°52'0 0.0
2016-Apr-25 19:32N 49°11' W 123°52'2 2.4
2016-Apr-25 18:33N 49°10' W 123°55'1 0.5
2016-Apr-25 17:33N 49°10' W 123°56'1 1.4
2016-Apr-25 16:33N 49°10' W 123°54'1 1.5
2016-Apr-25 15:33N 49°11' W 123°52'0 0.1
2016-Apr-25 14:33N 49°11' W 123°52'3 2.9
2016-Apr-25 13:33N 49°10' W 123°56'3 2.2
2016-Apr-25 12:16N 49°11' W 123°52'0 0.0
2016-Apr-25 10:25N 49°11' W 123°52'0 0.0
2016-Apr-25 09:10N 49°11' W 123°52'0 0.0
2016-Apr-25 06:24N 49°11' W 123°52'1 0.8
2016-Apr-25 05:33N 49°11' W 123°53'0 0.1
2016-Apr-25 04:33N 49°11' W 123°52'0 0.5
2016-Apr-25 03:33N 49°11' W 123°53'1 0.8
2016-Apr-25 02:33N 49°11' W 123°52'0 0.3
2016-Apr-25 01:33N 49°11' W 123°52'0 0.0
2016-Apr-25 00:33N 49°11' W 123°52'2 1.9
2016-Apr-24 23:33N 49°10' W 123°54'1 1.0
2016-Apr-24 22:33N 49°10' W 123°56'3 2.8
2016-Apr-24 21:31N 49°11' W 123°52'0 0.0
2016-Apr-24 20:33N 49°11' W 123°52'0 0.0
2016-Apr-24 19:33N 49°11' W 123°52'2 2.0
2016-Apr-24 18:34N 49°10' W 123°54'1 0.9
2016-Apr-24 17:33N 49°10' W 123°56'1 1.0
2016-Apr-24 16:33N 49°10' W 123°54'2 1.9
2016-Apr-24 15:32N 49°11' W 123°52'3 2.9
2016-Apr-24 14:33N 49°10' W 123°56'0 0.1
2016-Apr-24 13:33N 49°10' W 123°56'3 2.5
2016-Apr-24 12:26N 49°11' W 123°52'0 0.0
2016-Apr-24 06:31N 49°11' W 123°52'0 0.1
2016-Apr-24 05:33N 49°11' W 123°52'0 0.2
2016-Apr-24 04:33N 49°11' W 123°52'1 0.6
2016-Apr-24 03:33N 49°11' W 123°53'0 0.4
2016-Apr-24 02:34N 49°11' W 123°52'1 0.5
2016-Apr-24 01:33N 49°11' W 123°52'0 0.0
2016-Apr-24 00:23N 49°11' W 123°52'2 2.4
2016-Apr-23 23:33N 49°10' W 123°54'1 0.9
2016-Apr-23 22:33N 49°10' W 123°56'3 2.7
2016-Apr-23 21:28N 49°11' W 123°52'0 0.0
2016-Apr-23 20:33N 49°11' W 123°52'0 0.0
2016-Apr-23 19:33N 49°11' W 123°52'2 2.2
2016-Apr-23 18:33N 49°10' W 123°55'1 0.7
2016-Apr-23 17:33N 49°10' W 123°56'1 1.3
2016-Apr-23 16:33N 49°10' W 123°54'2 1.6
2016-Apr-23 15:33N 49°11' W 123°52'0 0.0
2016-Apr-23 14:33N 49°11' W 123°52'3 2.8
2016-Apr-23 13:33N 49°10' W 123°56'3 2.6
2016-Apr-23 12:30N 49°11' W 123°52'0 0.0
2016-Apr-23 11:30N 49°11' W 123°52'0 0.0
2016-Apr-23 10:24N 49°11' W 123°52'0 0.0
2016-Apr-23 09:33N 49°11' W 123°52'0 0.0
2016-Apr-23 06:27N 49°11' W 123°52'0 0.1
2016-Apr-23 05:33N 49°11' W 123°52'0 0.2
2016-Apr-23 04:33N 49°11' W 123°52'1 0.9
2016-Apr-23 03:33N 49°10' W 123°53'1 0.8
2016-Apr-23 02:33N 49°11' W 123°52'0 0.3
2016-Apr-23 01:29N 49°11' W 123°52'0 0.0
2016-Apr-23 00:33N 49°11' W 123°52'2 1.8
2016-Apr-22 23:34N 49°10' W 123°54'1 1.1
2016-Apr-22 22:33N 49°10' W 123°56'0 0.0
2016-Apr-22 21:34N 49°10' W 123°56'3 2.9
2016-Apr-22 20:34N 49°11' W 123°52'0 0.0
2016-Apr-22 19:33N 49°11' W 123°52'2 2.3
2016-Apr-22 18:34N 49°10' W 123°55'1 0.6
2016-Apr-22 17:33N 49°10' W 123°56'1 0.9
2016-Apr-22 16:33N 49°10' W 123°54'2 2.0
2016-Apr-22 15:34N 49°11' W 123°52'0 0.0
2016-Apr-22 14:33N 49°11' W 123°52'2 2.4
2016-Apr-22 13:33N 49°10' W 123°55'2 0.3
2016-Apr-22 06:28N 49°11' W 123°52'0 0.5
2016-Apr-22 05:33N 49°11' W 123°52'0 0.3
2016-Apr-22 04:33N 49°11' W 123°52'1 0.8
2016-Apr-22 03:32N 49°10' W 123°53'1 0.9
2016-Apr-22 02:32N 49°11' W 123°52'0 0.1
2016-Apr-22 01:33N 49°11' W 123°52'0 0.0
2016-Apr-22 00:33N 49°11' W 123°52'2 1.9
2016-Apr-21 23:33N 49°10' W 123°54'1 1.0
2016-Apr-21 22:33N 49°10' W 123°56'1 1.0
2016-Apr-21 21:33N 49°10' W 123°54'2 1.9
2016-Apr-21 20:33N 49°11' W 123°52'0 0.0
2016-Apr-21 19:33N 49°11' W 123°52'2 2.2
2016-Apr-21 18:33N 49°10' W 123°55'1 0.8
2016-Apr-21 17:33N 49°10' W 123°56'1 1.2
2016-Apr-21 16:33N 49°10' W 123°54'2 1.7
2016-Apr-21 15:33N 49°11' W 123°52'0 0.0
2016-Apr-21 14:33N 49°11' W 123°52'2 2.4
2016-Apr-21 13:33N 49°10' W 123°55'2 2.1
2016-Apr-21 12:25N 49°11' W 123°52'0 0.0
2016-Apr-21 11:31N 49°11' W 123°52'0 0.0
2016-Apr-21 09:25N 49°11' W 123°52'0 0.0
2016-Apr-21 06:22N 49°11' W 123°52'3 3.6
2016-Apr-21 05:33N 49°10' W 123°56'2 2.4
2016-Apr-21 04:33N 49°11' W 123°52'1 0.6
2016-Apr-21 03:33N 49°10' W 123°53'0 0.5
2016-Apr-21 02:33N 49°11' W 123°52'1 0.6
2016-Apr-21 01:33N 49°11' W 123°52'0 0.0
2016-Apr-21 00:33N 49°11' W 123°52'1 1.5
2016-Apr-20 23:33N 49°10' W 123°54'1 1.4
2016-Apr-20 22:33N 49°10' W 123°56'1 1.4
2016-Apr-20 21:33N 49°10' W 123°54'2 1.5
2016-Apr-20 20:33N 49°11' W 123°52'0 0.0
2016-Apr-20 19:33N 49°11' W 123°52'2 2.4
2016-Apr-20 18:33N 49°10' W 123°55'1 0.5
2016-Apr-20 17:30N 49°10' W 123°56'0 0.1
2016-Apr-20 16:34N 49°10' W 123°56'3 2.7
2016-Apr-20 15:33N 49°11' W 123°52'0 0.1
2016-Apr-20 14:33N 49°11' W 123°52'2 2.3
2016-Apr-20 13:34N 49°10' W 123°55'  
Track history (hours):
 
Tides and Currents Weather Stations Pressure Air Temp Water Temp Dewpoint Dewpoint Depression Visibility Wind Speed Wind Dir Waves Ship Positions

Quinsam

Last reported at 2016-Apr-30 11:12 UTC. Time now 2016-Apr-30 13:05 UTC.
Position N 49°11' W 123°52'.

Length 88 m; draft 1.5 m.

Type: Ship. MMSI: 316001266.

Date/timePositionNaut miles runAvg speedWind from/ knotsBaromVisibWave heightAir tempDewpointWater temp
2016-Apr-30 11:12N 49°11' W 123°52'0 0.0
2016-Apr-30 10:33N 49°11' W 123°52'0 0.0
2016-Apr-30 09:27N 49°11' W 123°52'0 0.0
2016-Apr-30 08:24N 49°11' W 123°52'0 0.0
2016-Apr-30 07:33N 49°11' W 123°52'0 0.0
2016-Apr-30 06:20N 49°11' W 123°52'1 0.7
2016-Apr-30 05:33N 49°11' W 123°52'0 0.4
2016-Apr-30 04:33N 49°11' W 123°52'1 0.6
2016-Apr-30 03:33N 49°10' W 123°53'0 0.5
2016-Apr-30 02:33N 49°11' W 123°52'0 0.5
2016-Apr-30 01:33N 49°11' W 123°52'0 0.0
2016-Apr-30 00:32N 49°11' W 123°52'2 1.7
2016-Apr-29 23:34N 49°10' W 123°54'1 1.3
2016-Apr-29 22:33N 49°10' W 123°56'0 0.4
2016-Apr-29 21:33N 49°10' W 123°55'2 2.4
2016-Apr-29 20:33N 49°11' W 123°52'0 0.1
2016-Apr-29 19:33N 49°11' W 123°52'1 1.3
2016-Apr-29 18:33N 49°10' W 123°54'2 1.6
2016-Apr-29 17:33N 49°10' W 123°56'0 0.5
2016-Apr-29 16:33N 49°10' W 123°55'2 2.4
2016-Apr-29 15:34N 49°11' W 123°52'0 0.1
2016-Apr-29 14:32N 49°11' W 123°52'2 2.4
2016-Apr-29 13:33N 49°10' W 123°55'2 1.1
2016-Apr-29 11:31N 49°11' W 123°52'0 0.0
2016-Apr-29 10:28N 49°11' W 123°52'0 0.0
2016-Apr-29 09:28N 49°11' W 123°52'0 0.0
2016-Apr-29 08:31N 49°11' W 123°52'0 0.0
2016-Apr-29 07:31N 49°11' W 123°52'0 0.0
2016-Apr-29 06:31N 49°11' W 123°52'1 0.5
2016-Apr-29 05:33N 49°11' W 123°52'1 0.5
2016-Apr-29 04:33N 49°11' W 123°52'1 1.0
2016-Apr-29 03:33N 49°10' W 123°53'1 0.9
2016-Apr-29 02:34N 49°11' W 123°52'0 0.1
2016-Apr-29 01:33N 49°11' W 123°52'0 0.0
2016-Apr-29 00:21N 49°11' W 123°52'2 2.0
2016-Apr-28 23:33N 49°10' W 123°54'1 1.2
2016-Apr-28 22:31N 49°10' W 123°56'1 0.9
2016-Apr-28 21:33N 49°10' W 123°55'2 2.0
2016-Apr-28 20:32N 49°11' W 123°52'0 0.0
2016-Apr-28 19:32N 49°11' W 123°52'2 2.4
2016-Apr-28 18:33N 49°10' W 123°55'1 0.6
2016-Apr-28 17:33N 49°10' W 123°56'0 0.2
2016-Apr-28 16:33N 49°10' W 123°56'2 2.5
2016-Apr-28 15:33N 49°11' W 123°52'0 0.2
2016-Apr-28 14:30N 49°11' W 123°52'3 3.0
2016-Apr-28 13:34N 49°10' W 123°56'3 2.5
2016-Apr-28 12:27N 49°11' W 123°52'0 0.0
2016-Apr-28 11:15N 49°11' W 123°52'0 0.0
2016-Apr-28 09:33N 49°11' W 123°52'0 0.0
2016-Apr-28 08:33N 49°11' W 123°52'0 0.0
2016-Apr-28 07:33N 49°11' W 123°52'0 0.0
2016-Apr-28 06:22N 49°11' W 123°52'3 3.4
2016-Apr-28 05:32N 49°10' W 123°56'2 2.5
2016-Apr-28 04:33N 49°11' W 123°52'1 0.6
2016-Apr-28 03:34N 49°10' W 123°53'1 0.9
2016-Apr-28 02:33N 49°11' W 123°52'0 0.2
2016-Apr-28 01:32N 49°11' W 123°52'0 0.0
2016-Apr-28 00:32N 49°11' W 123°52'1 0.6
2016-Apr-27 23:33N 49°11' W 123°52'2 2.4
2016-Apr-27 22:33N 49°10' W 123°56'0 0.4
2016-Apr-27 21:33N 49°10' W 123°55'3 2.5
2016-Apr-27 20:32N 49°11' W 123°52'0 0.0
2016-Apr-27 19:28N 49°11' W 123°52'3 2.7
2016-Apr-27 18:33N 49°10' W 123°55'0 0.4
2016-Apr-27 17:33N 49°10' W 123°56'1 1.0
2016-Apr-27 16:34N 49°10' W 123°54'2 1.9
2016-Apr-27 15:34N 49°11' W 123°52'0 0.0
2016-Apr-27 14:33N 49°11' W 123°52'3 2.8
2016-Apr-27 13:33N 49°10' W 123°56'3 2.6
2016-Apr-27 12:28N 49°11' W 123°52'0 0.0
2016-Apr-27 11:22N 49°11' W 123°52'0 0.0
2016-Apr-27 10:28N 49°11' W 123°52'0 0.0
2016-Apr-27 09:25N 49°11' W 123°52'0 0.0
2016-Apr-27 08:28N 49°11' W 123°52'0 0.0
2016-Apr-27 07:28N 49°11' W 123°52'0 0.0
2016-Apr-27 06:31N 49°11' W 123°52'0 0.5
2016-Apr-27 05:33N 49°11' W 123°52'0 0.1
2016-Apr-27 04:34N 49°11' W 123°52'1 0.8
2016-Apr-27 03:33N 49°10' W 123°53'1 1.2
2016-Apr-27 02:33N 49°11' W 123°52'0 0.1
2016-Apr-27 01:32N 49°11' W 123°52'0 0.0
2016-Apr-27 00:33N 49°11' W 123°52'2 1.7
2016-Apr-26 23:33N 49°10' W 123°54'1 1.2
2016-Apr-26 22:33N 49°10' W 123°56'1 1.1
2016-Apr-26 21:33N 49°10' W 123°54'2 1.8
2016-Apr-26 20:33N 49°11' W 123°52'0 0.0
2016-Apr-26 19:33N 49°11' W 123°52'2 2.4
2016-Apr-26 18:33N 49°10' W 123°55'1 0.6
2016-Apr-26 17:33N 49°10' W 123°56'1 1.0
2016-Apr-26 16:33N 49°10' W 123°54'2 1.9
2016-Apr-26 15:33N 49°11' W 123°52'0 0.0
2016-Apr-26 14:28N 49°11' W 123°52'3 3.1
2016-Apr-26 13:33N 49°10' W 123°56'3 1.2
2016-Apr-26 11:10N 49°11' W 123°52'0 0.0
2016-Apr-26 07:22N 49°11' W 123°52'0 0.0
2016-Apr-26 06:24N 49°11' W 123°52'1 0.8
2016-Apr-26 05:33N 49°11' W 123°53'0 0.1
2016-Apr-26 04:33N 49°11' W 123°52'0 0.5
2016-Apr-26 03:33N 49°10' W 123°53'1 0.7
2016-Apr-26 02:33N 49°11' W 123°52'0 0.3
2016-Apr-26 01:31N 49°11' W 123°52'0 0.0
2016-Apr-26 00:23N 49°11' W 123°52'2 1.9
2016-Apr-25 23:33N 49°10' W 123°54'1 1.3
2016-Apr-25 22:33N 49°10' W 123°56'1 1.3
2016-Apr-25 21:33N 49°10' W 123°54'2 1.6
2016-Apr-25 20:33N 49°11' W 123°52'0 0.0
2016-Apr-25 19:32N 49°11' W 123°52'2 2.4
2016-Apr-25 18:33N 49°10' W 123°55'1 0.5
2016-Apr-25 17:33N 49°10' W 123°56'1 1.4
2016-Apr-25 16:33N 49°10' W 123°54'1 1.5
2016-Apr-25 15:33N 49°11' W 123°52'0 0.1
2016-Apr-25 14:33N 49°11' W 123°52'3 2.9
2016-Apr-25 13:33N 49°10' W 123°56'3 2.2
2016-Apr-25 12:16N 49°11' W 123°52'0 0.0
2016-Apr-25 10:25N 49°11' W 123°52'0 0.0
2016-Apr-25 09:10N 49°11' W 123°52'0 0.0
2016-Apr-25 06:24N 49°11' W 123°52'1 0.8
2016-Apr-25 05:33N 49°11' W 123°53'0 0.1
2016-Apr-25 04:33N 49°11' W 123°52'0 0.5
2016-Apr-25 03:33N 49°11' W 123°53'1 0.8
2016-Apr-25 02:33N 49°11' W 123°52'0 0.3
2016-Apr-25 01:33N 49°11' W 123°52'0 0.0
2016-Apr-25 00:33N 49°11' W 123°52'2 1.9
2016-Apr-24 23:33N 49°10' W 123°54'1 1.0
2016-Apr-24 22:33N 49°10' W 123°56'3 2.8
2016-Apr-24 21:31N 49°11' W 123°52'0 0.0
2016-Apr-24 20:33N 49°11' W 123°52'0 0.0
2016-Apr-24 19:33N 49°11' W 123°52'2 2.0
2016-Apr-24 18:34N 49°10' W 123°54'1 0.9
2016-Apr-24 17:33N 49°10' W 123°56'1 1.0
2016-Apr-24 16:33N 49°10' W 123°54'2 1.9
2016-Apr-24 15:32N 49°11' W 123°52'3 2.9
2016-Apr-24 14:33N 49°10' W 123°56'0 0.1
2016-Apr-24 13:33N 49°10' W 123°56'3 2.5
2016-Apr-24 12:26N 49°11' W 123°52'0 0.0
2016-Apr-24 06:31N 49°11' W 123°52'0 0.1
2016-Apr-24 05:33N 49°11' W 123°52'0 0.2
2016-Apr-24 04:33N 49°11' W 123°52'1 0.6
2016-Apr-24 03:33N 49°11' W 123°53'0 0.4
2016-Apr-24 02:34N 49°11' W 123°52'1 0.5
2016-Apr-24 01:33N 49°11' W 123°52'0 0.0
2016-Apr-24 00:23N 49°11' W 123°52'2 2.4
2016-Apr-23 23:33N 49°10' W 123°54'1 0.9
2016-Apr-23 22:33N 49°10' W 123°56'3 2.7
2016-Apr-23 21:28N 49°11' W 123°52'0 0.0
2016-Apr-23 20:33N 49°11' W 123°52'0 0.0
2016-Apr-23 19:33N 49°11' W 123°52'2 2.2
2016-Apr-23 18:33N 49°10' W 123°55'1 0.7
2016-Apr-23 17:33N 49°10' W 123°56'1 1.3
2016-Apr-23 16:33N 49°10' W 123°54'2 1.6
2016-Apr-23 15:33N 49°11' W 123°52'0 0.0
2016-Apr-23 14:33N 49°11' W 123°52'3 2.8
2016-Apr-23 13:33N 49°10' W 123°56'3 2.6
2016-Apr-23 12:30N 49°11' W 123°52'0 0.0
2016-Apr-23 11:30N 49°11' W 123°52'0 0.0
2016-Apr-23 10:24N 49°11' W 123°52'0 0.0
2016-Apr-23 09:33N 49°11' W 123°52'0 0.0
2016-Apr-23 06:27N 49°11' W 123°52'0 0.1
2016-Apr-23 05:33N 49°11' W 123°52'0 0.2
2016-Apr-23 04:33N 49°11' W 123°52'1 0.9
2016-Apr-23 03:33N 49°10' W 123°53'1 0.8
2016-Apr-23 02:33N 49°11' W 123°52'0 0.3
2016-Apr-23 01:29N 49°11' W 123°52'0 0.0
2016-Apr-23 00:33N 49°11' W 123°52'2 1.8
2016-Apr-22 23:34N 49°10' W 123°54'1 1.1
2016-Apr-22 22:33N 49°10' W 123°56'0 0.0
2016-Apr-22 21:34N 49°10' W 123°56'3 2.9
2016-Apr-22 20:34N 49°11' W 123°52'0 0.0
2016-Apr-22 19:33N 49°11' W 123°52'2 2.3
2016-Apr-22 18:34N 49°10' W 123°55'1 0.6
2016-Apr-22 17:33N 49°10' W 123°56'1 0.9
2016-Apr-22 16:33N 49°10' W 123°54'2 2.0
2016-Apr-22 15:34N 49°11' W 123°52'0 0.0
2016-Apr-22 14:33N 49°11' W 123°52'2 2.4
2016-Apr-22 13:33N 49°10' W 123°55'2 0.3
2016-Apr-22 06:28N 49°11' W 123°52'0 0.5
2016-Apr-22 05:33N 49°11' W 123°52'0 0.3
2016-Apr-22 04:33N 49°11' W 123°52'1 0.8
2016-Apr-22 03:32N 49°10' W 123°53'1 0.9
2016-Apr-22 02:32N 49°11' W 123°52'0 0.1
2016-Apr-22 01:33N 49°11' W 123°52'0 0.0
2016-Apr-22 00:33N 49°11' W 123°52'2 1.9
2016-Apr-21 23:33N 49°10' W 123°54'1 1.0
2016-Apr-21 22:33N 49°10' W 123°56'1 1.0
2016-Apr-21 21:33N 49°10' W 123°54'2 1.9
2016-Apr-21 20:33N 49°11' W 123°52'0 0.0
2016-Apr-21 19:33N 49°11' W 123°52'2 2.2
2016-Apr-21 18:33N 49°10' W 123°55'1 0.8
2016-Apr-21 17:33N 49°10' W 123°56'1 1.2
2016-Apr-21 16:33N 49°10' W 123°54'2 1.7
2016-Apr-21 15:33N 49°11' W 123°52'0 0.0
2016-Apr-21 14:33N 49°11' W 123°52'2 2.4
2016-Apr-21 13:33N 49°10' W 123°55'2 2.1
2016-Apr-21 12:25N 49°11' W 123°52'0 0.0
2016-Apr-21 11:31N 49°11' W 123°52'0 0.0
2016-Apr-21 09:25N 49°11' W 123°52'0 0.0
2016-Apr-21 06:22N 49°11' W 123°52'3 3.6
2016-Apr-21 05:33N 49°10' W 123°56'2 2.4
2016-Apr-21 04:33N 49°11' W 123°52'1 0.6
2016-Apr-21 03:33N 49°10' W 123°53'0 0.5
2016-Apr-21 02:33N 49°11' W 123°52'1 0.6
2016-Apr-21 01:33N 49°11' W 123°52'0 0.0
2016-Apr-21 00:33N 49°11' W 123°52'1 1.5
2016-Apr-20 23:33N 49°10' W 123°54'1 1.4
2016-Apr-20 22:33N 49°10' W 123°56'1 1.4
2016-Apr-20 21:33N 49°10' W 123°54'2 1.5
2016-Apr-20 20:33N 49°11' W 123°52'0 0.0
2016-Apr-20 19:33N 49°11' W 123°52'2 2.4
2016-Apr-20 18:33N 49°10' W 123°55'1 0.5
2016-Apr-20 17:30N 49°10' W 123°56'0 0.1
2016-Apr-20 16:34N 49°10' W 123°56'3 2.7
2016-Apr-20 15:33N 49°11' W 123°52'0 0.1
2016-Apr-20 14:33N 49°11' W 123°52'2 2.3
2016-Apr-20 13:34N 49°10' W 123°55'  

Dump ship's entire track history